Time;durP1;ratioP1;P1;durP2;ratioP2;P2;SDS_P1;SDS_P2;PMS_P1;PMS_P2;Temp;Humidity;BMP_temperature;BMP_pressure;BME280_temperature;BME280_humidity;BME280_pressure;Samples;Min_cycle;Max_cycle;Signal;HPM_P1;HPM_P2
2022/08/04 00:00:09;;;;;;;12.45;4.57;;;18.50;1.00;;;;;;5054109;28;20049;-27
2022/08/04 00:03:03;;;;;;;9.73;4.50;;;18.40;1.00;;;;;;5052060;28;20114;-27
2022/08/04 00:05:31;;;;;;;;;;;18.40;1.00;;;;;;5052196;28;20045;-27
2022/08/04 00:08:03;;;;;;;10.20;4.13;;;18.30;18.50;;;;;;5056642;28;19921;-27
2022/08/04 00:10:33;;;;;;;17.37;5.47;;;18.30;7.50;;;;;;5056512;28;20578;-27
2022/08/04 00:13:01;;;;;;;9.18;4.32;;;18.30;20.90;;;;;;5056303;28;20057;-27
2022/08/04 00:15:31;;;;;;;12.93;3.92;;;18.20;27.60;;;;;;5056945;28;20410;-27
2022/08/04 00:18:02;;;;;;;10.15;4.35;;;18.20;78.40;;;;;;5054191;28;20041;-27
2022/08/04 00:20:32;;;;;;;13.50;3.83;;;18.20;57.30;;;;;;5054788;28;20045;-27
2022/08/04 00:22:59;;;;;;;15.27;4.57;;;18.10;81.60;;;;;;5055706;28;20399;-27
2022/08/04 00:25:25;;;;;;;9.23;4.20;;;18.20;40.70;;;;;;5056536;28;20102;-27
2022/08/04 00:27:52;;;;;;;11.68;3.53;;;18.10;97.80;;;;;;5055196;28;20047;-27
2022/08/04 00:30:18;;;;;;;9.68;3.90;;;18.10;99.90;;;;;;5055208;28;20483;-27
2022/08/04 00:32:44;;;;;;;9.90;4.05;;;18.10;99.90;;;;;;5051703;28;20072;-27
2022/08/04 00:35:13;;;;;;;11.57;4.03;;;18.10;99.90;;;;;;5055282;28;20127;-27
2022/08/04 00:37:42;;;;;;;13.77;3.75;;;18.00;99.90;;;;;;5053550;28;20483;-27
2022/08/04 00:40:45;;;;;;;13.32;3.55;;;18.10;99.90;;;;;;5053657;28;20040;-27
2022/08/04 00:43:35;;;;;;;10.90;3.97;;;18.10;99.90;;;;;;5054119;28;20041;-27
2022/08/04 00:46:13;;;;;;;13.00;3.95;;;18.00;99.90;;;;;;5056061;28;20123;-27
2022/08/04 00:49:03;;;;;;;13.48;4.50;;;18.00;99.90;;;;;;5054994;28;20049;-27
2022/08/04 00:51:45;;;;;;;8.00;3.63;;;18.00;99.90;;;;;;5036797;28;20146;-27
2022/08/04 00:54:25;;;;;;;10.65;4.65;;;18.00;99.90;;;;;;5054333;28;20053;-27
2022/08/04 00:57:12;;;;;;;7.70;3.75;;;18.00;99.90;;;;;;5055936;28;20044;-27
2022/08/04 00:59:37;;;;;;;8.93;4.13;;;18.00;99.90;;;;;;5054797;28;20049;-27
2022/08/04 01:02:33;;;;;;;12.23;5.25;;;17.90;99.90;;;;;;5056487;28;20040;-27
2022/08/04 01:05:10;;;;;;;9.43;4.25;;;18.00;99.90;;;;;;5056273;28;20418;-27
2022/08/04 01:07:38;;;;;;;9.30;4.45;;;18.10;99.90;;;;;;5054788;28;20037;-26
2022/08/04 01:10:17;;;;;;;12.32;5.03;;;18.10;99.90;;;;;;5055178;28;20491;-27
2022/08/04 01:12:48;;;;;;;9.10;4.57;;;18.10;99.90;;;;;;5037725;28;20061;-28
2022/08/04 01:15:22;;;;;;;11.20;4.85;;;18.10;99.90;;;;;;5055261;28;20537;-26
2022/08/04 01:17:56;;;;;;;13.23;5.03;;;18.20;99.90;;;;;;5055125;28;20123;-27
2022/08/04 01:20:25;;;;;;;10.95;5.28;;;18.20;99.90;;;;;;5054870;28;20041;-28
2022/08/04 01:23:28;;;;;;;10.90;5.38;;;18.20;99.90;;;;;;5052143;28;20140;-27
2022/08/04 01:26:05;;;;;;;17.38;5.30;;;18.20;99.90;;;;;;5055428;28;20124;-28
2022/08/04 01:29:02;;;;;;;13.77;5.63;;;18.30;99.90;;;;;;5054927;28;20402;-27
2022/08/04 01:32:03;;;;;;;13.80;6.38;;;18.30;99.90;;;;;;5055952;28;20044;-27
2022/08/04 01:34:51;;;;;;;12.77;6.22;;;18.30;99.90;;;;;;5054784;28;20053;-27
2022/08/04 01:37:35;;;;;;;12.57;5.97;;;18.20;99.90;;;;;;5054100;28;20049;-28
2022/08/04 01:40:04;;;;;;;13.20;5.20;;;18.20;99.90;;;;;;5055139;28;20041;-27
2022/08/04 01:42:35;;;;;;;17.38;6.05;;;18.30;99.90;;;;;;5054547;28;20131;-27
2022/08/04 01:45:05;;;;;;;14.68;5.13;;;18.30;99.90;;;;;;5054642;28;20049;-27
2022/08/04 01:47:34;;;;;;;8.93;5.15;;;18.30;99.90;;;;;;5055590;28;20049;-28
2022/08/04 01:50:11;;;;;;;10.48;6.00;;;18.30;1.00;;;;;;5054917;28;20056;-27
2022/08/04 01:52:39;;;;;;;12.85;6.45;;;18.40;1.00;;;;;;5053956;28;20060;-27
2022/08/04 01:55:08;;;;;;;13.75;6.25;;;18.40;1.00;;;;;;5052882;28;20056;-27
2022/08/04 01:57:46;;;;;;;11.63;5.88;;;18.40;1.00;;;;;;5053039;28;20123;-27
2022/08/04 02:00:17;;;;;;;14.25;6.38;;;18.40;1.00;;;;;;5054792;28;20044;-28
2022/08/04 02:02:44;;;;;;;14.23;6.85;;;18.40;1.00;;;;;;5054690;28;20052;-27
2022/08/04 02:05:13;;;;;;;11.50;6.13;;;18.40;1.00;;;;;;5052766;28;20036;-26
2022/08/04 02:08:00;;;;;;;12.30;6.28;;;18.40;1.00;;;;;;5052686;28;20114;-26
2022/08/04 02:10:44;;;;;;;11.13;6.20;;;18.50;1.00;;;;;;5053648;28;20102;-27
2022/08/04 02:13:14;;;;;;;16.83;5.90;;;18.50;1.00;;;;;;5055913;28;20500;-26
2022/08/04 02:16:03;;;;;;;14.23;5.63;;;18.50;1.00;;;;;;5051809;28;20041;-27
2022/08/04 02:18:47;;;;;;;11.88;6.43;;;18.50;1.00;;;;;;5055653;28;20146;-27
2022/08/04 02:21:15;;;;;;;15.45;5.93;;;18.50;1.00;;;;;;5053193;28;20045;-27
2022/08/04 02:23:45;;;;;;;16.35;7.38;;;18.50;99.90;;;;;;5052988;28;20057;-27
2022/08/04 02:26:21;;;;;;;17.10;7.72;;;18.50;1.00;;;;;;5054049;28;20068;-27
2022/08/04 02:28:55;;;;;;;10.48;6.45;;;18.50;1.00;;;;;;5034724;28;20373;-26
2022/08/04 02:31:36;;;;;;;12.32;6.15;;;18.40;1.00;;;;;;5053689;28;20487;-27
2022/08/04 02:34:24;;;;;;;12.77;7.07;;;18.40;1.00;;;;;;5054806;28;20048;-27
2022/08/04 02:36:51;;;;;;;11.98;6.47;;;18.40;1.00;;;;;;5052660;28;20545;-27
2022/08/04 02:39:19;;;;;;;11.45;6.32;;;18.40;1.00;;;;;;5054276;28;20106;-27
2022/08/04 02:41:47;;;;;;;15.48;6.40;;;18.50;1.00;;;;;;5053890;28;20096;-27
2022/08/04 02:44:14;;;;;;;11.38;6.82;;;18.50;1.00;;;;;;5053962;28;20171;-27
2022/08/04 02:46:41;;;;;;;14.77;6.72;;;18.50;1.00;;;;;;5053186;28;20049;-27
2022/08/04 02:49:09;;;;;;;12.05;6.43;;;18.50;1.00;;;;;;5053677;28;20402;-27
2022/08/04 02:51:41;;;;;;;15.73;6.40;;;18.50;1.00;;;;;;5054989;28;20386;-27
2022/08/04 02:54:07;;;;;;;15.00;6.53;;;18.60;1.00;;;;;;5053496;28;20041;-27
2022/08/04 02:56:35;;;;;;;12.18;6.95;;;18.60;1.00;;;;;;5053376;28;20080;-27
2022/08/04 02:59:07;;;;;;;12.48;6.38;;;18.60;1.00;;;;;;5051920;28;20461;-27
2022/08/04 03:01:34;;;;;;;10.82;6.70;;;18.70;1.00;;;;;;5054597;28;20053;-27
2022/08/04 03:04:16;;;;;;;19.27;6.63;;;18.70;1.00;;;;;;5053055;28;20053;-27
2022/08/04 03:07:30;;;;;;;21.25;7.65;;;18.60;1.00;;;;;;5053518;28;20049;-27
2022/08/04 03:10:04;;;;;;;;;;;18.70;1.00;;;;;;5047985;28;20049;-27
2022/08/04 03:12:56;;;;;;;14.68;6.82;;;18.70;1.00;;;;;;5053901;28;19928;-27
2022/08/04 03:15:49;;;;;;;15.07;6.78;;;18.70;1.00;;;;;;5053838;28;20131;-27
2022/08/04 03:18:52;;;;;;;12.02;6.63;;;18.70;1.00;;;;;;5052474;28;20051;-27
2022/08/04 03:21:47;;;;;;;11.68;5.97;;;18.60;1.00;;;;;;5053187;28;20049;-27
2022/08/04 03:24:42;;;;;;;13.18;7.72;;;18.60;1.00;;;;;;5050604;28;20037;-27
2022/08/04 03:27:19;;;;;;;16.67;7.32;;;18.50;1.00;;;;;;5053083;28;20056;-27
2022/08/04 03:30:04;;;;;;;16.48;8.40;;;18.50;1.00;;;;;;5052751;28;20049;-28
2022/08/04 03:32:51;;;;;;;14.48;8.02;;;18.50;1.00;;;;;;5052474;28;20041;-27
2022/08/04 03:35:25;;;;;;;19.15;8.00;;;18.40;1.00;;;;;;5052593;28;20486;-27
2022/08/04 03:38:09;;;;;;;15.68;7.88;;;18.50;1.00;;;;;;5052987;28;20041;-27
2022/08/04 03:40:40;;;;;;;14.45;7.88;;;18.40;1.00;;;;;;5052652;28;20047;-27
2022/08/04 03:43:37;;;;;;;14.30;8.00;;;18.40;1.00;;;;;;5052915;28;20048;-27
2022/08/04 03:46:40;;;;;;;13.60;7.53;;;18.40;1.00;;;;;;5051876;28;20118;-27
2022/08/04 03:49:24;;;;;;;18.58;8.00;;;18.40;1.00;;;;;;5053549;28;20048;-27
2022/08/04 03:54:55;;;;;;;19.10;8.93;;;18.40;1.00;;;;;;5053315;28;20464;-27
2022/08/04 03:57:46;;;;;;;15.98;8.23;;;18.40;1.00;;;;;;5051684;28;20541;-27
2022/08/04 04:00:33;;;;;;;18.08;9.43;;;18.40;1.00;;;;;;5052433;28;20556;-27
2022/08/04 04:03:05;;;;;;;12.40;8.25;;;18.40;1.00;;;;;;5050455;28;20392;-27
2022/08/04 04:05:55;;;;;;;18.63;8.65;;;18.50;1.00;;;;;;5053400;28;20573;-26
2022/08/04 04:08:54;;;;;;;17.85;9.45;;;18.40;8.60;;;;;;5053138;28;20167;-27
2022/08/04 04:11:41;;;;;;;19.83;8.57;;;18.50;1.00;;;;;;5051796;28;20044;-27
2022/08/04 04:14:31;;;;;;;15.65;8.93;;;18.50;1.00;;;;;;5054038;28;20060;-27
2022/08/04 04:17:08;;;;;;;16.42;8.48;;;18.60;6.30;;;;;;5050563;28;20517;-27
2022/08/04 04:20:07;;;;;;;16.10;7.30;;;18.70;1.00;;;;;;5053350;28;20127;-27
2022/08/04 04:23:02;;;;;;;19.35;8.85;;;18.70;1.00;;;;;;5051492;28;20099;-27
2022/08/04 04:25:46;;;;;;;12.55;7.22;;;18.80;1.00;;;;;;5053266;28;20052;-27
2022/08/04 04:28:33;;;;;;;16.02;7.70;;;18.80;1.00;;;;;;5052054;28;20037;-27
2022/08/04 04:31:32;;;;;;;12.93;7.97;;;18.90;1.00;;;;;;5051399;28;20053;-28
2022/08/04 04:34:25;;;;;;;13.68;8.05;;;18.90;1.00;;;;;;5053165;28;20048;-28
2022/08/04 04:37:11;;;;;;;17.98;8.18;;;18.90;1.00;;;;;;5052407;28;20051;-30
2022/08/04 04:40:07;;;;;;;16.58;7.40;;;19.00;1.00;;;;;;5049806;28;20080;-27
2022/08/04 04:42:38;;;;;;;16.85;8.85;;;19.00;1.00;;;;;;5051843;28;20482;-27
2022/08/04 04:45:10;;;;;;;18.85;8.35;;;19.00;1.00;;;;;;5053122;28;20081;-27
2022/08/04 04:47:52;;;;;;;11.75;7.70;;;19.10;1.00;;;;;;5052292;28;20458;-27
2022/08/04 04:50:40;;;;;;;18.45;8.45;;;19.20;1.00;;;;;;5051954;28;20053;-27
2022/08/04 04:53:19;;;;;;;19.48;8.52;;;19.20;1.00;;;;;;5053859;28;20147;-27
2022/08/04 04:55:54;;;;;;;18.60;8.75;;;19.20;1.00;;;;;;5055145;28;20399;-28
2022/08/04 04:58:21;;;;;;;14.27;8.50;;;19.30;1.00;;;;;;5057199;28;20048;-27
2022/08/04 05:01:14;;;;;;;17.45;8.38;;;19.30;99.90;;;;;;5055548;28;20059;-28
2022/08/04 05:03:43;;;;;;;18.30;8.85;;;19.30;99.90;;;;;;5042782;28;20454;-27
2022/08/04 05:06:36;;;;;;;16.33;8.20;;;19.30;99.90;;;;;;5055473;28;20517;-27
2022/08/04 05:09:30;;;;;;;18.67;9.65;;;19.40;99.90;;;;;;5056420;28;20131;-28
2022/08/04 05:12:31;;;;;;;16.70;8.60;;;19.40;99.90;;;;;;5054587;28;20053;-27
2022/08/04 05:14:59;;;;;;;19.88;8.95;;;19.40;99.90;;;;;;5055576;28;20060;-27
2022/08/04 05:17:37;;;;;;;20.38;9.18;;;19.50;99.90;;;;;;5054886;28;20087;-28
2022/08/04 05:20:24;;;;;;;15.98;8.10;;;19.50;99.90;;;;;;5054636;28;20055;-27
2022/08/04 05:23:02;;;;;;;18.05;8.55;;;19.60;99.90;;;;;;5048238;28;20075;-27
2022/08/04 05:25:39;;;;;;;17.20;9.73;;;19.60;99.90;;;;;;5055136;28;20055;-27
2022/08/04 05:28:11;;;;;;;13.85;9.10;;;19.60;99.90;;;;;;5054210;28;20053;-27
2022/08/04 05:30:52;;;;;;;18.65;8.98;;;19.70;99.90;;;;;;5054061;28;20122;-27
2022/08/04 05:33:24;;;;;;;15.88;9.07;;;19.80;99.90;;;;;;5055676;28;20395;-28
2022/08/04 05:35:53;;;;;;;13.47;8.43;;;19.90;1.00;;;;;;5054670;28;20045;-28
2022/08/04 05:38:25;;;;;;;12.98;7.90;;;20.10;1.00;;;;;;5055777;28;20550;-27
2022/08/04 05:40:52;;;;;;;15.57;8.63;;;20.10;1.00;;;;;;5055821;28;20506;-27
2022/08/04 05:43:19;;;;;;;13.30;7.80;;;20.30;99.90;;;;;;5053508;28;20052;-27
2022/08/04 05:45:47;;;;;;;12.63;7.47;;;20.40;99.90;;;;;;5055565;28;20080;-27
2022/08/04 05:48:14;;;;;;;13.57;8.07;;;20.50;99.90;;;;;;5054969;28;20063;-27
2022/08/04 05:50:40;;;;;;;17.17;8.57;;;20.60;99.90;;;;;;5054911;28;20402;-27
2022/08/04 05:53:09;;;;;;;18.65;8.27;;;20.60;99.90;;;;;;5052592;28;20403;-27
2022/08/04 05:55:35;;;;;;;13.73;8.15;;;21.00;99.90;;;;;;5056043;28;20106;-27
2022/08/04 05:58:01;;;;;;;13.45;7.70;;;21.60;88.20;;;;;;5050872;28;20448;-28
2022/08/04 06:00:29;;;;;;;13.90;7.43;;;22.20;99.90;;;;;;5051413;28;20107;-27
2022/08/04 06:02:56;;;;;;;16.67;7.20;;;22.80;99.90;;;;;;5053081;28;20045;-27
2022/08/04 06:05:23;;;;;;;17.25;8.18;;;23.20;1.00;;;;;;5054219;28;20053;-27
2022/08/04 06:07:49;;;;;;;17.33;7.68;;;23.80;99.90;;;;;;5054560;28;20053;-27
2022/08/04 06:10:16;;;;;;;16.55;8.00;;;24.00;99.90;;;;;;5054498;28;20556;-27
2022/08/04 06:13:14;;;;;;;12.48;7.10;;;24.00;99.90;;;;;;5053119;28;20049;-27
2022/08/04 06:15:44;;;;;;;15.05;6.90;;;24.20;1.00;;;;;;5018255;28;20053;-28
2022/08/04 06:18:12;;;;;;;10.25;6.63;;;24.30;1.00;;;;;;5054510;28;20112;-27
2022/08/04 06:20:40;;;;;;;11.25;8.48;;;24.10;1.00;;;;;;5053826;28;20061;-27
2022/08/04 06:23:12;;;;;;;12.70;6.53;;;24.00;1.00;;;;;;5051444;28;20479;-27
2022/08/04 06:25:46;;;;;;;14.90;6.75;;;24.00;1.00;;;;;;5049931;28;20786;-27
2022/08/04 06:28:14;;;;;;;13.60;6.70;;;24.00;1.00;;;;;;5043675;28;20042;-27
2022/08/04 06:30:40;;;;;;;14.85;6.35;;;24.00;1.00;;;;;;5047309;28;20060;-28
2022/08/04 06:33:31;;;;;;;11.65;5.95;;;24.00;1.00;;;;;;5036956;28;20394;-28
2022/08/04 06:35:59;;;;;;;12.02;6.20;;;24.00;1.00;;;;;;5054694;28;20089;-28
2022/08/04 06:38:27;;;;;;;11.48;5.57;;;23.90;1.00;;;;;;5054663;28;20045;-28
2022/08/04 06:40:56;;;;;;;11.07;6.25;;;23.90;1.00;;;;;;5054960;28;20131;-28
2022/08/04 06:43:25;;;;;;;10.60;6.20;;;23.80;1.00;;;;;;5054586;28;20049;-28
2022/08/04 06:45:52;;;;;;;12.32;6.85;;;23.80;4.20;;;;;;5053097;28;20392;-28
2022/08/04 06:48:18;;;;;;;11.82;5.90;;;23.80;1.00;;;;;;5054463;28;20049;-28
2022/08/04 06:50:48;;;;;;;13.05;5.20;;;23.90;1.00;;;;;;5054169;28;20410;-29
2022/08/04 06:53:14;;;;;;;10.95;4.97;;;24.10;1.00;;;;;;5053240;28;20049;-28
2022/08/04 06:55:42;;;;;;;11.85;5.63;;;24.10;1.00;;;;;;5055178;28;20041;-28
2022/08/04 06:58:09;;;;;;;14.48;4.88;;;24.20;1.00;;;;;;5054349;28;20102;-28
2022/08/04 07:00:36;;;;;;;14.98;5.85;;;24.20;99.90;;;;;;5054253;28;20049;-28
2022/08/04 07:03:03;;;;;;;10.02;5.00;;;24.30;1.00;;;;;;5053503;28;20064;-28
2022/08/04 07:05:30;;;;;;;11.15;5.55;;;24.30;1.00;;;;;;5052443;28;20045;-28
2022/08/04 07:07:56;;;;;;;11.93;5.20;;;24.30;1.00;;;;;;5052221;28;20036;-28
2022/08/04 07:10:23;;;;;;;12.52;4.78;;;24.30;1.00;;;;;;5054107;28;20045;-28
2022/08/04 07:12:49;;;;;;;9.75;5.03;;;24.20;1.00;;;;;;5054417;28;20221;-28
2022/08/04 07:15:17;;;;;;;11.48;5.15;;;24.20;1.00;;;;;;5053809;28;20388;-28
2022/08/04 07:17:45;;;;;;;12.32;6.07;;;24.20;1.00;;;;;;5052990;28;20037;-28
2022/08/04 07:20:11;;;;;;;14.15;6.38;;;24.10;99.90;;;;;;5053963;28;20178;-28
2022/08/04 07:22:39;;;;;;;13.55;6.57;;;24.10;99.90;;;;;;5049055;28;20124;-28
2022/08/04 07:25:09;;;;;;;13.07;8.50;;;24.00;99.90;;;;;;5053114;28;20052;-28
2022/08/04 07:27:35;;;;;;;13.38;8.80;;;23.80;1.00;;;;;;5053787;28;20103;-28
2022/08/04 07:30:05;;;;;;;14.10;9.48;;;23.50;99.90;;;;;;5053576;28;20509;-28
2022/08/04 07:32:31;;;;;;;12.60;9.43;;;23.30;99.90;;;;;;5054046;28;20056;-28
2022/08/04 07:34:58;;;;;;;14.55;8.57;;;23.10;99.90;;;;;;5052789;28;20122;-28
2022/08/04 07:37:24;;;;;;;14.05;8.55;;;23.10;99.90;;;;;;5053015;28;20053;-28
2022/08/04 07:39:50;;;;;;;13.18;8.07;;;23.10;99.90;;;;;;5054492;28;20056;-28
2022/08/04 07:42:20;;;;;;;16.95;8.15;;;23.30;99.90;;;;;;5053633;28;20542;-28
2022/08/04 07:44:46;;;;;;;19.98;9.23;;;23.30;99.90;;;;;;5054093;28;20478;-30
2022/08/04 07:47:12;;;;;;;15.50;8.43;;;23.40;78.40;;;;;;5053221;28;20119;-28
2022/08/04 07:49:40;;;;;;;10.93;7.72;;;23.40;99.90;;;;;;5051239;28;20048;-28
2022/08/04 07:52:07;;;;;;;10.30;7.03;;;23.60;99.90;;;;;;5053568;28;20077;-28
2022/08/04 07:54:33;;;;;;;12.25;7.13;;;23.80;99.90;;;;;;5052519;28;20098;-28
2022/08/04 07:56:59;;;;;;;11.35;6.93;;;24.00;1.00;;;;;;5053425;28;20059;-28
2022/08/04 07:59:25;;;;;;;10.73;6.65;;;24.10;1.00;;;;;;5035606;28;20040;-28
2022/08/04 08:01:52;;;;;;;15.15;7.20;;;24.10;1.00;;;;;;5053428;28;20067;-28
2022/08/04 08:04:19;;;;;;;12.77;6.63;;;24.20;99.90;;;;;;5053120;28;20568;-28
2022/08/04 08:06:45;;;;;;;15.13;6.82;;;24.30;99.90;;;;;;5053987;28;20060;-27
2022/08/04 08:09:16;;;;;;;10.75;7.03;;;24.40;1.00;;;;;;5053150;28;20037;-28
2022/08/04 08:11:44;;;;;;;17.42;6.95;;;24.70;99.90;;;;;;5034948;28;20045;-28
2022/08/04 08:14:10;;;;;;;10.32;6.50;;;24.60;99.90;;;;;;5051502;28;20118;-28
2022/08/04 08:16:36;;;;;;;11.63;6.68;;;24.50;99.90;;;;;;5052136;28;20056;-28
2022/08/04 08:19:02;;;;;;;10.05;6.35;;;24.40;99.90;;;;;;5053169;28;20531;-28
2022/08/04 08:21:28;;;;;;;13.85;6.70;;;24.50;99.90;;;;;;5052329;28;20048;-28
2022/08/04 08:23:54;;;;;;;15.15;6.57;;;24.50;99.90;;;;;;5052297;28;20101;-27
2022/08/04 08:26:20;;;;;;;10.95;6.00;;;24.40;91.90;;;;;;5052934;28;20515;-28
2022/08/04 08:28:46;;;;;;;10.70;6.30;;;24.50;99.90;;;;;;5057058;28;20045;-28
2022/08/04 08:31:12;;;;;;;10.52;7.20;;;24.50;99.90;;;;;;5056064;28;20041;-29
2022/08/04 08:33:39;;;;;;;12.05;6.70;;;24.60;99.90;;;;;;5054280;28;20063;-28
2022/08/04 08:36:27;;;;;;;10.02;6.63;;;24.70;99.90;;;;;;5057861;28;20110;-27
2022/08/04 08:39:16;;;;;;;14.68;6.25;;;24.40;36.60;;;;;;5055856;28;20159;-28
2022/08/04 08:42:04;;;;;;;9.65;6.40;;;24.50;99.90;;;;;;5048004;28;20490;-28
2022/08/04 08:45:10;;;;;;;13.77;6.95;;;24.60;99.90;;;;;;5055484;28;20674;-28
2022/08/04 08:47:47;;;;;;;11.70;6.82;;;24.70;99.90;;;;;;5045085;28;20106;-29
2022/08/04 08:50:36;;;;;;;11.57;6.20;;;24.80;99.90;;;;;;5049411;28;20046;-27
2022/08/04 08:53:30;;;;;;;11.07;5.15;;;25.00;99.90;;;;;;5036801;28;20041;-28
2022/08/04 08:56:04;;;;;;;10.98;3.28;;;25.20;90.30;;;;;;5036760;28;20049;-28
2022/08/04 08:58:53;;;;;;;8.38;3.00;;;25.30;1.00;;;;;;5053158;28;20434;-28
2022/08/04 09:01:42;;;;;;;6.80;3.47;;;25.50;99.90;;;;;;5048625;28;20071;-28
2022/08/04 09:04:39;;;;;;;9.98;2.90;;;25.50;99.90;;;;;;5054050;28;20175;-28
2022/08/04 09:07:34;;;;;;;4.38;2.83;;;25.40;99.90;;;;;;5056376;28;20087;-28
2022/08/04 09:10:03;;;;;;;6.95;3.40;;;25.50;99.90;;;;;;5056386;28;20047;-28
2022/08/04 09:12:54;;;;;;;10.88;3.35;;;26.10;99.90;;;;;;5050346;28;20136;-28
2022/08/04 09:15:38;;;;;;;6.45;2.70;;;26.50;1.00;;;;;;5053350;28;20052;-28
2022/08/04 09:18:22;;;;;;;7.28;3.20;;;26.60;6.30;;;;;;5055556;28;20040;-28
2022/08/04 09:20:55;;;;;;;11.02;3.72;;;26.90;1.00;;;;;;5056229;28;20047;-27
2022/08/04 09:23:49;;;;;;;5.90;2.92;;;27.30;1.00;;;;;;5055009;28;20112;-26
2022/08/04 09:26:24;;;;;;;5.80;2.90;;;27.70;99.90;;;;;;5055594;28;20051;-26
2022/08/04 09:29:00;;;;;;;5.88;3.30;;;27.50;99.90;;;;;;5056576;28;20179;-27
2022/08/04 09:31:47;;;;;;;12.23;2.58;;;27.50;99.90;;;;;;5056098;28;20052;-27
2022/08/04 09:34:45;;;;;;;6.13;3.55;;;27.60;99.90;;;;;;5039159;28;20045;-27
2022/08/04 09:37:32;;;;;;;5.00;2.50;;;27.60;99.90;;;;;;5049416;28;20078;-27
2022/08/04 09:40:05;;;;;;;4.22;2.30;;;28.00;99.90;;;;;;5055853;28;20084;-27
2022/08/04 09:42:39;;;;;;;6.18;2.28;;;28.30;99.90;;;;;;5054578;28;20053;-27
2022/08/04 09:45:11;;;;;;;8.65;2.30;;;28.50;1.00;;;;;;5055397;28;20391;-27
2022/08/04 09:47:48;;;;;;;10.02;2.38;;;28.30;1.00;;;;;;5054587;28;20122;-27
2022/08/04 09:50:30;;;;;;;5.57;2.00;;;28.30;1.00;;;;;;5054682;28;20045;-26
2022/08/04 09:53:11;;;;;;;;;;;28.40;1.00;;;;;;5039047;28;20049;-27
2022/08/04 09:55:49;;;;;;;8.25;2.30;;;28.30;1.00;;;;;;5054942;28;19921;-27
2022/08/04 09:58:36;;;;;;;4.20;2.00;;;27.80;99.90;;;;;;5053509;28;20090;-26
2022/08/04 10:01:08;;;;;;;5.80;1.98;;;28.00;1.00;;;;;;5055430;28;20084;-27
2022/08/04 10:03:49;;;;;;;8.80;1.88;;;27.40;1.00;;;;;;5056298;28;20127;-26
2022/08/04 10:06:28;;;;;;;6.30;1.65;;;27.10;99.90;;;;;;5054595;28;20048;-28
2022/08/04 10:09:19;;;;;;;9.35;2.67;;;27.40;99.90;;;;;;5055280;28;20044;-27
2022/08/04 10:12:11;;;;;;;8.38;2.10;;;27.90;52.90;;;;;;5055169;28;20064;-27
2022/08/04 10:14:51;;;;;;;7.55;2.10;;;28.80;1.00;;;;;;5055252;28;20057;-27
2022/08/04 10:17:54;;;;;;;7.32;2.13;;;29.60;1.00;;;;;;5052912;28;20048;-28
2022/08/04 10:20:44;;;;;;;7.57;2.17;;;29.20;1.00;;;;;;5055366;28;20045;-27
2022/08/04 10:23:39;;;;;;;7.90;2.33;;;28.90;1.00;;;;;;5055367;28;20132;-27
2022/08/04 10:26:26;;;;;;;9.82;2.33;;;28.50;1.00;;;;;;5054877;28;20049;-27
2022/08/04 10:29:11;;;;;;;5.22;1.80;;;28.60;99.90;;;;;;5053736;28;20121;-27
2022/08/04 10:32:07;;;;;;;8.55;1.90;;;28.50;90.00;;;;;;5055431;28;20044;-26
2022/08/04 10:34:46;;;;;;;5.90;1.30;;;28.20;1.00;;;;;;5055384;28;20041;-26
2022/08/04 10:37:25;;;;;;;5.00;1.30;;;28.00;70.10;;;;;;5054119;28;20044;-27
2022/08/04 10:43:08;;;;;;;11.98;1.83;;;27.90;1.00;;;;;;5054687;28;20083;-27
2022/08/04 10:46:04;;;;;;;2.83;1.40;;;27.90;1.00;;;;;;5054656;28;20045;-26
2022/08/04 10:48:45;;;;;;;3.72;1.25;;;27.80;5.20;;;;;;5052725;28;20062;-26
2022/08/04 10:51:25;;;;;;;3.37;1.23;;;28.10;1.00;;;;;;5053986;28;20517;-27
2022/08/04 10:53:58;;;;;;;2.60;0.80;;;28.10;99.90;;;;;;5055039;28;20053;-27
2022/08/04 10:56:52;;;;;;;5.20;1.23;;;27.80;96.00;;;;;;5053335;28;20052;-27
2022/08/04 10:59:52;;;;;;;4.13;1.20;;;27.80;1.00;;;;;;5052530;28;20116;-27
2022/08/04 11:02:33;;;;;;;2.63;1.60;;;27.80;1.00;;;;;;5053298;28;20060;-27
2022/08/04 11:05:24;;;;;;;3.13;1.10;;;27.40;99.90;;;;;;5053356;28;20053;-27
2022/08/04 11:07:54;;;;;;;3.63;1.30;;;27.20;99.90;;;;;;5054161;28;20053;-26
2022/08/04 11:10:24;;;;;;;3.53;1.35;;;27.10;99.90;;;;;;5051381;28;20056;-27
2022/08/04 11:12:56;;;;;;;5.88;1.50;;;27.30;99.90;;;;;;5053319;28;20128;-27
2022/08/04 11:15:27;;;;;;;2.17;0.90;;;27.70;99.90;;;;;;5054684;28;20050;-27
2022/08/04 11:17:57;;;;;;;2.28;1.00;;;27.70;1.00;;;;;;5054109;28;20076;-27
2022/08/04 11:20:29;;;;;;;2.75;1.60;;;27.80;21.20;;;;;;5052455;28;20056;-26
2022/08/04 11:23:10;;;;;;;5.32;1.65;;;27.60;99.90;;;;;;5052104;28;20048;-27
2022/08/04 11:25:45;;;;;;;5.55;1.77;;;27.20;99.90;;;;;;5052810;28;20060;-27
2022/08/04 11:28:18;;;;;;;3.08;1.30;;;27.00;1.00;;;;;;5053832;28;20088;-28
2022/08/04 11:30:49;;;;;;;5.03;1.50;;;27.10;1.00;;;;;;5052789;28;20053;-28
2022/08/04 11:33:45;;;;;;;5.40;1.13;;;27.00;76.90;;;;;;5052441;28;20045;-27
2022/08/04 11:36:32;;;;;;;3.15;1.00;;;26.70;1.00;;;;;;5053949;28;20386;-27
2022/08/04 11:39:16;;;;;;;5.68;1.20;;;27.00;1.00;;;;;;5054542;28;20142;-27
2022/08/04 11:41:56;;;;;;;1.35;0.60;;;27.00;1.00;;;;;;5052761;28;20132;-27
2022/08/04 11:44:46;;;;;;;1.55;0.70;;;26.90;99.90;;;;;;5047385;28;20410;-27
2022/08/04 11:47:29;;;;;;;1.52;0.73;;;26.70;99.90;;;;;;5052863;28;20395;-26
2022/08/04 11:50:26;;;;;;;3.42;0.88;;;26.60;99.90;;;;;;5053518;28;20102;-27
2022/08/04 11:52:54;;;;;;;2.85;0.60;;;26.50;99.90;;;;;;5031734;28;20057;-26
2022/08/04 11:55:21;;;;;;;5.32;1.05;;;26.20;99.90;;;;;;5033603;28;20064;-27
2022/08/04 11:57:48;;;;;;;4.05;0.85;;;26.30;99.90;;;;;;5033952;28;20390;-27
2022/08/04 12:00:18;;;;;;;1.67;0.60;;;26.40;99.90;;;;;;5053536;28;20449;-27
2022/08/04 12:02:55;;;;;;;2.35;0.47;;;26.40;99.90;;;;;;5055859;28;20045;-27
2022/08/04 12:05:31;;;;;;;5.35;0.85;;;26.20;99.90;;;;;;5058302;28;20045;-27
2022/08/04 12:08:02;;;;;;;2.10;0.77;;;26.00;99.90;;;;;;5057429;28;20045;-27
2022/08/04 12:11:04;;;;;;;3.05;0.98;;;25.90;99.90;;;;;;5056307;28;20045;-27
2022/08/04 12:13:43;;;;;;;1.92;0.70;;;25.90;99.90;;;;;;5055926;28;20459;-27
2022/08/04 12:16:24;;;;;;;3.10;0.50;;;25.90;99.90;;;;;;5057551;28;20098;-27
2022/08/04 12:18:56;;;;;;;3.35;0.70;;;25.80;13.40;;;;;;5057588;28;20048;-26
2022/08/04 12:21:48;;;;;;;1.52;0.60;;;25.80;99.90;;;;;;5057317;28;20135;-26
2022/08/04 12:24:21;;;;;;;1.20;0.70;;;25.60;99.90;;;;;;5055654;28;20510;-27
2022/08/04 12:26:54;;;;;;;2.55;0.85;;;25.70;1.00;;;;;;5053953;28;20053;-27
2022/08/04 12:29:21;;;;;;;4.28;1.17;;;25.80;1.00;;;;;;5057655;28;20045;-27
2022/08/04 12:31:52;;;;;;;3.17;0.60;;;25.80;99.90;;;;;;5052284;28;20052;-27
2022/08/04 12:34:39;;;;;;;3.88;0.88;;;25.60;1.00;;;;;;5057971;28;20364;-27
2022/08/04 12:37:32;;;;;;;1.63;0.60;;;25.60;1.00;;;;;;5057933;28;20040;-27
2022/08/04 12:40:02;;;;;;;2.15;0.80;;;25.60;1.00;;;;;;5056020;28;20497;-26
2022/08/04 12:42:44;;;;;;;2.53;0.70;;;25.70;1.00;;;;;;5056932;28;20139;-27
2022/08/04 12:45:11;;;;;;;2.33;0.80;;;26.10;1.00;;;;;;5056261;28;20053;-27
2022/08/04 12:47:39;;;;;;;1.42;0.57;;;26.70;99.90;;;;;;5056838;28;20403;-27
2022/08/04 12:50:07;;;;;;;3.30;0.80;;;27.20;99.90;;;;;;5038624;28;20124;-26
2022/08/04 12:52:42;;;;;;;5.90;1.10;;;27.70;99.90;;;;;;5056338;28;20462;-27
2022/08/04 12:55:09;;;;;;;4.85;0.80;;;27.70;1.00;;;;;;5056491;28;20088;-27
2022/08/04 12:57:35;;;;;;;2.00;0.80;;;27.60;99.90;;;;;;5056651;28;20052;-27
2022/08/04 13:00:01;;;;;;;4.28;1.20;;;27.40;97.20;;;;;;5054468;28;20071;-27
2022/08/04 13:02:30;;;;;;;4.10;0.85;;;26.80;99.90;;;;;;5055345;28;20475;-27
2022/08/04 13:05:01;;;;;;;7.45;1.10;;;26.70;99.90;;;;;;5057356;28;20114;-26
2022/08/04 13:07:42;;;;;;;2.38;0.60;;;26.90;1.00;;;;;;5057094;28;20050;-26
2022/08/04 13:10:12;;;;;;;5.10;2.55;;;26.90;99.90;;;;;;5055451;28;20526;-27
2022/08/04 13:12:40;;;;;;;3.25;1.23;;;27.00;99.90;;;;;;5038070;28;20072;-27
2022/08/04 13:15:19;;;;;;;7.00;1.48;;;27.20;99.90;;;;;;5055769;28;20052;-27
2022/08/04 13:17:55;;;;;;;4.40;0.95;;;27.10;99.90;;;;;;5055332;28;20075;-26
2022/08/04 13:20:33;;;;;;;3.05;0.80;;;27.00;99.90;;;;;;5055421;28;20096;-27
2022/08/04 13:23:10;;;;;;;4.88;1.00;;;26.90;99.90;;;;;;5054887;28;20055;-27
2022/08/04 13:25:42;;;;;;;5.65;1.15;;;26.70;99.90;;;;;;5056768;28;20041;-27
2022/08/04 13:28:15;;;;;;;3.40;1.02;;;26.40;99.90;;;;;;5055861;28;20407;-26
2022/08/04 13:30:44;;;;;;;4.10;0.73;;;26.20;1.00;;;;;;5055611;28;20052;-26
2022/08/04 13:33:11;;;;;;;5.03;1.48;;;26.00;99.90;;;;;;5056001;28;20056;-26
2022/08/04 13:35:44;;;;;;;6.18;1.27;;;25.90;99.90;;;;;;5054308;28;20045;-26
2022/08/04 13:38:12;;;;;;;2.15;1.08;;;25.90;99.90;;;;;;5055323;28;20049;-26
2022/08/04 13:40:40;;;;;;;6.40;1.15;;;26.30;1.00;;;;;;5055842;28;20056;-27